createdAt,value
2017-03-23T00:00:44.976Z,1013.64
2017-03-23T00:01:57.221Z,1013.65
2017-03-23T00:03:09.420Z,1013.61
2017-03-23T00:04:21.980Z,1013.66
2017-03-23T00:05:34.485Z,1013.66
2017-03-23T00:06:46.698Z,1013.64
2017-03-23T00:07:59.233Z,1013.65
2017-03-23T00:09:11.777Z,1013.66
2017-03-23T00:10:23.999Z,1013.66
2017-03-23T00:11:36.213Z,1013.66
2017-03-23T00:12:48.441Z,1013.67
2017-03-23T00:14:00.647Z,1013.65
2017-03-23T00:15:12.857Z,1013.67
2017-03-23T00:16:25.086Z,1013.66
2017-03-23T00:17:37.617Z,1013.69
2017-03-23T00:18:49.571Z,1013.57
2017-03-23T00:20:02.111Z,1013.54
2017-03-23T00:21:14.630Z,1013.55
2017-03-23T00:22:26.869Z,1013.53
2017-03-23T00:23:39.090Z,1013.52
2017-03-23T00:24:50.995Z,1013.53
2017-03-23T00:26:02.915Z,1013.48
2017-03-23T00:27:14.809Z,1013.48
2017-03-23T00:28:27.024Z,1013.45
2017-03-23T00:29:38.641Z,1013.45
2017-03-23T00:30:51.166Z,1013.43
2017-03-23T00:32:03.374Z,1013.45
2017-03-23T00:33:15.911Z,1013.42
2017-03-23T00:34:28.444Z,1013.42
2017-03-23T00:35:40.952Z,1013.32
2017-03-23T00:36:53.506Z,1013.38
2017-03-23T00:38:05.421Z,1013.33
2017-03-23T00:39:17.366Z,1013.38
2017-03-23T00:40:29.919Z,1013.36
2017-03-23T00:41:42.446Z,1013.42
2017-03-23T00:42:54.960Z,1013.43
2017-03-23T00:44:07.181Z,1013.45
2017-03-23T00:45:19.703Z,1013.41
2017-03-23T00:46:31.921Z,1013.4
2017-03-23T00:47:44.445Z,1013.4
2017-03-23T00:48:56.367Z,1013.39
2017-03-23T00:50:08.878Z,1013.36
2017-03-23T00:51:21.406Z,1013.37
2017-03-23T00:52:33.907Z,1013.39
2017-03-23T00:53:46.145Z,1013.32
2017-03-23T00:54:58.370Z,1013.44
2017-03-23T00:56:10.593Z,1013.44
2017-03-23T00:57:22.804Z,1013.37
2017-03-23T00:58:35.050Z,1013.39
2017-03-23T00:59:47.304Z,1013.42
2017-03-23T01:00:59.865Z,1013.36
2017-03-23T01:02:12.397Z,1013.41
2017-03-23T01:03:24.933Z,1013.44
2017-03-23T01:04:37.463Z,1013.43
2017-03-23T01:05:49.650Z,1013.43
2017-03-23T01:07:01.826Z,1013.4
2017-03-23T01:08:14.321Z,1013.37
2017-03-23T01:09:26.842Z,1013.38
2017-03-23T01:10:39.043Z,1013.38
2017-03-23T01:11:51.259Z,1013.38
2017-03-23T01:13:03.460Z,1013.38
2017-03-23T01:14:15.697Z,1013.41
2017-03-23T01:15:28.266Z,1013.42
2017-03-23T01:16:40.168Z,1013.48
2017-03-23T01:17:52.692Z,1013.47
2017-03-23T01:19:04.626Z,1013.46
2017-03-23T01:20:17.162Z,1013.49
2017-03-23T01:21:29.684Z,1013.45
2017-03-23T01:22:42.215Z,1013.44
2017-03-23T01:23:54.423Z,1013.42
2017-03-23T01:25:06.639Z,1013.39
2017-03-23T01:26:19.154Z,1013.37
2017-03-23T01:27:31.657Z,1013.34
2017-03-23T01:28:44.182Z,1013.34
2017-03-23T01:29:56.427Z,1013.34
2017-03-23T01:31:08.937Z,1013.34
2017-03-23T01:32:21.449Z,1013.36
2017-03-23T01:33:33.990Z,1013.33
2017-03-23T01:34:46.534Z,1013.32
2017-03-23T01:35:58.749Z,1013.32
2017-03-23T01:37:11.252Z,1013.32
2017-03-23T01:38:23.794Z,1013.27
2017-03-23T01:39:36.268Z,1013.33
2017-03-23T01:40:48.804Z,1013.33
2017-03-23T01:42:01.010Z,1013.27
2017-03-23T01:43:13.232Z,1013.27
2017-03-23T01:44:25.470Z,1013.28
2017-03-23T01:45:37.997Z,1013.23
2017-03-23T01:46:49.915Z,1013.24
2017-03-23T01:48:01.866Z,1013.25
2017-03-23T01:49:14.385Z,1013.23
2017-03-23T01:50:26.946Z,1013.22
2017-03-23T01:51:39.154Z,1013.14
2017-03-23T01:52:51.362Z,1013.23
2017-03-23T01:54:03.574Z,1013.22
2017-03-23T01:55:16.108Z,1013.25
2017-03-23T01:56:28.334Z,1013.24
2017-03-23T01:57:40.258Z,1013.22
2017-03-23T01:58:52.181Z,1013.24
2017-03-23T02:00:04.725Z,1013.24
2017-03-23T02:01:17.263Z,1013.18
2017-03-23T02:02:29.796Z,1013.2
2017-03-23T02:03:42.329Z,1013.22
2017-03-23T02:04:54.547Z,1013.25
2017-03-23T02:06:06.774Z,1013.22
2017-03-23T02:07:18.698Z,1013.22
2017-03-23T02:08:30.946Z,1013.23
2017-03-23T02:09:43.163Z,1013.29
2017-03-23T02:10:55.702Z,1013.26
2017-03-23T02:12:07.931Z,1013.26
2017-03-23T02:13:20.180Z,1013.26
2017-03-23T02:14:32.690Z,1013.2
2017-03-23T02:15:45.193Z,1013.26
2017-03-23T02:16:57.093Z,1013.26
2017-03-23T02:18:09.609Z,1013.28
2017-03-23T02:19:22.152Z,1013.22
2017-03-23T02:20:34.680Z,1013.23
2017-03-23T02:21:46.615Z,1013.2
2017-03-23T02:22:58.850Z,1013.15
2017-03-23T02:24:10.815Z,1013.17
2017-03-23T02:25:23.056Z,1013.11
2017-03-23T02:26:35.606Z,1013.11
2017-03-23T02:27:47.827Z,1013.1
2017-03-23T02:29:00.048Z,1013.08
2017-03-23T02:30:12.573Z,1013.11
2017-03-23T02:31:25.108Z,1013.09
2017-03-23T02:32:37.011Z,1013.06
2017-03-23T02:33:49.231Z,1013.07
2017-03-23T02:35:01.453Z,1013.01
2017-03-23T02:36:13.403Z,1012.97
2017-03-23T02:37:25.337Z,1012.94
2017-03-23T02:38:37.870Z,1012.99
2017-03-23T02:39:50.089Z,1012.91
2017-03-23T02:41:02.649Z,1012.97
2017-03-23T02:42:14.856Z,1012.96
2017-03-23T02:43:27.374Z,1012.99
2017-03-23T02:44:39.597Z,1012.98
2017-03-23T02:45:51.807Z,1012.96
2017-03-23T02:47:03.740Z,1012.94
2017-03-23T02:48:15.978Z,1012.96
2017-03-23T02:49:28.506Z,1013.02
2017-03-23T02:50:41.029Z,1013.02
2017-03-23T02:51:53.570Z,1012.95
2017-03-23T02:53:05.787Z,1012.99
2017-03-23T02:54:18.055Z,1012.98
2017-03-23T02:55:30.588Z,1012.93
2017-03-23T02:56:43.109Z,1012.87
2017-03-23T02:57:55.325Z,1012.89
2017-03-23T02:59:07.842Z,1012.88
2017-03-23T03:00:20.076Z,1012.86
2017-03-23T03:01:32.641Z,1012.91
2017-03-23T03:02:44.858Z,1012.85
2017-03-23T03:03:57.081Z,1012.87
2017-03-23T03:05:09.329Z,1012.83
2017-03-23T03:06:21.872Z,1012.92
2017-03-23T03:07:33.822Z,1012.88
2017-03-23T03:08:46.347Z,1012.86
2017-03-23T03:09:58.614Z,1012.81
2017-03-23T03:11:10.506Z,1012.83
2017-03-23T03:12:23.053Z,1012.78
2017-03-23T03:13:35.576Z,1012.76
2017-03-23T03:14:47.488Z,1012.8
2017-03-23T03:15:59.387Z,1012.86
2017-03-23T03:17:11.938Z,1012.92
2017-03-23T03:18:24.455Z,1012.97
2017-03-23T03:19:36.702Z,1013.03
2017-03-23T03:20:48.291Z,1013.07
2017-03-23T03:22:00.522Z,1013.11
2017-03-23T03:23:11.857Z,1013.07
2017-03-23T03:24:24.341Z,1013.09
2017-03-23T03:25:36.552Z,1013.11
2017-03-23T03:26:48.459Z,1013.12
2017-03-23T03:28:00.698Z,1013.1
2017-03-23T03:29:13.244Z,1013.14
2017-03-23T03:30:25.469Z,1013.13
2017-03-23T03:31:37.682Z,1013.13
2017-03-23T03:32:49.886Z,1013.1
2017-03-23T03:34:02.087Z,1013.18
2017-03-23T03:35:14.602Z,1013.11
2017-03-23T03:36:27.149Z,1013.14
2017-03-23T03:37:39.407Z,1013.13
2017-03-23T03:38:51.894Z,1013.2
2017-03-23T03:40:04.458Z,1013.16
2017-03-23T03:41:16.379Z,1013.13
2017-03-23T03:42:28.927Z,1013.09
2017-03-23T03:43:41.462Z,1013.07
2017-03-23T03:44:53.660Z,1013.02
2017-03-23T03:46:06.171Z,1013.07
2017-03-23T03:47:18.729Z,1013.04
2017-03-23T03:48:31.260Z,1013.04
2017-03-23T03:49:43.806Z,1013.03
2017-03-23T03:50:56.346Z,1013.03
2017-03-23T03:52:08.568Z,1012.93
2017-03-23T03:53:20.816Z,1012.9
2017-03-23T03:54:33.340Z,1012.94
2017-03-23T03:55:45.858Z,1012.94
2017-03-23T03:56:57.795Z,1012.92
2017-03-23T03:58:09.721Z,1012.93
2017-03-23T03:59:21.927Z,1012.93
2017-03-23T04:00:34.167Z,1012.88
2017-03-23T04:01:46.451Z,1012.93
2017-03-23T04:02:58.958Z,1012.96
2017-03-23T04:04:11.185Z,1013.01
2017-03-23T04:05:23.393Z,1013.06
2017-03-23T04:06:35.646Z,1013.13
2017-03-23T04:07:47.581Z,1013.14
2017-03-23T04:09:00.110Z,1013.19
2017-03-23T04:10:12.605Z,1013.22
2017-03-23T04:11:25.048Z,1013.18
2017-03-23T04:12:37.301Z,1013.15
2017-03-23T04:13:48.941Z,1013.1
2017-03-23T04:15:01.471Z,1013.08
2017-03-23T04:16:13.385Z,1013.15
2017-03-23T04:17:25.902Z,1013.19
2017-03-23T04:18:38.132Z,1013.14
2017-03-23T04:19:50.023Z,1013.14
2017-03-23T04:21:02.544Z,1013.14
2017-03-23T04:22:14.773Z,1013.16
2017-03-23T04:23:26.961Z,1013.17
2017-03-23T04:24:39.518Z,1013.16
2017-03-23T04:25:51.731Z,1013.19
2017-03-23T04:27:03.951Z,1013.22
2017-03-23T04:28:16.197Z,1013.2
2017-03-23T04:29:28.433Z,1013.21
2017-03-23T04:30:40.340Z,1013.16
2017-03-23T04:31:52.564Z,1013.19
2017-03-23T04:33:05.046Z,1013.19
2017-03-23T04:34:17.552Z,1013.01
2017-03-23T04:35:29.795Z,1013.13
2017-03-23T04:36:42.308Z,1013.09
2017-03-23T04:37:54.214Z,1013.11
2017-03-23T04:39:06.426Z,1013.08
2017-03-23T04:40:18.654Z,1013.08
2017-03-23T04:41:31.179Z,1013.09
2017-03-23T04:42:43.726Z,1013.13
2017-03-23T04:43:55.594Z,1013.09
2017-03-23T04:45:07.566Z,1013.11
2017-03-23T04:46:19.788Z,1013.12
2017-03-23T04:47:32.310Z,1013.1
2017-03-23T04:48:44.227Z,1013.16
2017-03-23T04:49:56.446Z,1013.1
2017-03-23T04:51:08.999Z,1013.13
2017-03-23T04:52:21.213Z,1013.14
2017-03-23T04:53:33.737Z,1013.12
2017-03-23T04:54:45.958Z,1013.11
2017-03-23T04:55:58.469Z,1013.11
2017-03-23T04:57:11.038Z,1013.12
2017-03-23T04:58:23.246Z,1013.15
2017-03-23T04:59:35.470Z,1013.18
2017-03-23T05:00:47.714Z,1013.14
2017-03-23T05:02:00.230Z,1013.17
2017-03-23T05:03:12.443Z,1013.2
2017-03-23T05:04:24.976Z,1013.21
2017-03-23T05:05:37.201Z,1013.24
2017-03-23T05:06:49.739Z,1013.21
2017-03-23T05:08:01.927Z,1013.24
2017-03-23T05:09:14.139Z,1013.22
2017-03-23T05:10:26.673Z,1013.27
2017-03-23T05:11:39.168Z,1013.31
2017-03-23T05:12:51.064Z,1013.36
2017-03-23T05:14:03.594Z,1013.37
2017-03-23T05:15:15.531Z,1013.42
2017-03-23T05:16:27.707Z,1013.45
2017-03-23T05:17:39.636Z,1013.41
2017-03-23T05:18:51.873Z,1013.37
2017-03-23T05:20:04.119Z,1013.39
2017-03-23T05:21:16.067Z,1013.35
2017-03-23T05:22:28.586Z,1013.31
2017-03-23T05:23:41.099Z,1013.3
2017-03-23T05:24:53.005Z,1013.37
2017-03-23T05:26:04.626Z,1013.37
2017-03-23T05:27:16.569Z,1013.42
2017-03-23T05:28:28.765Z,1013.34
2017-03-23T05:29:40.661Z,1013.35
2017-03-23T05:30:52.578Z,1013.38
2017-03-23T05:32:04.771Z,1013.36
2017-03-23T05:33:17.279Z,1013.35
2017-03-23T05:34:29.523Z,1013.37
2017-03-23T05:35:41.759Z,1013.38
2017-03-23T05:36:53.692Z,1013.38
2017-03-23T05:38:06.483Z,1013.39
2017-03-23T05:39:19.054Z,1013.43
2017-03-23T05:40:31.551Z,1013.43
2017-03-23T05:41:43.471Z,1013.45
2017-03-23T05:42:55.696Z,1013.46
2017-03-23T05:44:07.893Z,1013.45
2017-03-23T05:45:20.085Z,1013.49
2017-03-23T05:46:32.624Z,1013.45
2017-03-23T05:47:45.178Z,1013.51
2017-03-23T05:48:57.124Z,1013.53
2017-03-23T05:50:09.342Z,1013.51
2017-03-23T05:51:21.891Z,1013.52
2017-03-23T05:52:34.437Z,1013.55
2017-03-23T05:53:46.626Z,1013.52
2017-03-23T05:54:59.171Z,1013.58
2017-03-23T05:56:11.689Z,1013.54
2017-03-23T05:57:23.593Z,1013.51
2017-03-23T05:58:36.159Z,1013.6
2017-03-23T05:59:48.734Z,1013.55
2017-03-23T06:01:01.256Z,1013.6
2017-03-23T06:02:12.879Z,1013.56
2017-03-23T06:03:25.401Z,1013.57
2017-03-23T06:04:37.921Z,1013.65
2017-03-23T06:05:50.148Z,1013.63
2017-03-23T06:07:02.063Z,1013.64
2017-03-23T06:08:14.609Z,1013.63
2017-03-23T06:09:27.132Z,1013.69
2017-03-23T06:10:39.619Z,1013.67
2017-03-23T06:11:51.223Z,1013.71
2017-03-23T06:13:03.764Z,1013.69
2017-03-23T06:14:16.312Z,1013.71
2017-03-23T06:15:28.859Z,1013.69
2017-03-23T06:16:41.402Z,1013.73
2017-03-23T06:17:53.922Z,1013.71
2017-03-23T06:19:06.444Z,1013.73
2017-03-23T06:20:18.993Z,1013.71
2017-03-23T06:21:31.486Z,1013.75
2017-03-23T06:22:43.725Z,1013.7
2017-03-23T06:23:55.955Z,1013.7
2017-03-23T06:25:08.170Z,1013.73
2017-03-23T06:26:20.715Z,1013.74
2017-03-23T06:27:33.240Z,1013.71
2017-03-23T06:28:45.765Z,1013.74
2017-03-23T06:29:57.410Z,1013.82
2017-03-23T06:31:09.652Z,1013.84
2017-03-23T06:32:21.566Z,1013.8
2017-03-23T06:33:34.099Z,1013.82
2017-03-23T06:34:46.340Z,1013.84
2017-03-23T06:35:58.837Z,1013.82
2017-03-23T06:37:10.785Z,1013.88
2017-03-23T06:38:23.327Z,1013.87
2017-03-23T06:39:35.850Z,1013.88
2017-03-23T06:40:48.366Z,1013.93
2017-03-23T06:42:00.287Z,1013.9
2017-03-23T06:43:13.087Z,1013.91
2017-03-23T06:44:25.613Z,1013.89
2017-03-23T06:45:37.813Z,1013.89
2017-03-23T06:46:49.724Z,1013.91
2017-03-23T06:48:02.267Z,1013.9
2017-03-23T06:49:14.166Z,1013.95
2017-03-23T06:50:26.694Z,1013.97
2017-03-23T06:51:39.207Z,1013.9
2017-03-23T06:52:51.472Z,1013.95
2017-03-23T06:54:04.000Z,1013.99
2017-03-23T06:55:16.256Z,1013.98
2017-03-23T06:56:28.788Z,1013.99
2017-03-23T06:57:41.333Z,1014.03
2017-03-23T06:58:53.567Z,1013.98
2017-03-23T07:00:05.801Z,1014.01
2017-03-23T07:01:18.351Z,1014.09
2017-03-23T07:02:30.547Z,1014.1
2017-03-23T07:03:42.767Z,1014.08
2017-03-23T07:04:54.679Z,1014.13
2017-03-23T07:06:07.226Z,1014.13
2017-03-23T07:07:19.758Z,1014.13
2017-03-23T07:08:32.308Z,1014.12
2017-03-23T07:09:44.852Z,1014.13
2017-03-23T07:10:57.402Z,1014.15
2017-03-23T07:12:09.913Z,1014.09
2017-03-23T07:13:21.841Z,1014.12
2017-03-23T07:14:34.084Z,1014.13
2017-03-23T07:15:46.595Z,1014.11
2017-03-23T07:16:58.790Z,1014.15
2017-03-23T07:18:11.272Z,1014.14
2017-03-23T07:19:23.790Z,1014.18
2017-03-23T07:20:36.013Z,1014.16
2017-03-23T07:21:48.273Z,1014.19
2017-03-23T07:23:00.495Z,1014.16
2017-03-23T07:24:13.027Z,1014.16
2017-03-23T07:25:25.522Z,1014.16
2017-03-23T07:26:37.411Z,1014.22
2017-03-23T07:27:49.689Z,1014.18
2017-03-23T07:29:02.236Z,1014.13
2017-03-23T07:30:14.806Z,1014.2
2017-03-23T07:31:27.378Z,1014.24
2017-03-23T07:32:39.303Z,1014.2
2017-03-23T07:33:51.543Z,1014.23
2017-03-23T07:35:04.144Z,1014.27
2017-03-23T07:36:16.374Z,1014.29
2017-03-23T07:37:28.277Z,1014.28
2017-03-23T07:38:40.523Z,1014.27
2017-03-23T07:39:52.147Z,1014.27
2017-03-23T07:41:04.696Z,1014.27
2017-03-23T07:42:16.939Z,1014.28
2017-03-23T07:43:28.829Z,1014.29
2017-03-23T07:44:41.432Z,1014.28
2017-03-23T07:45:53.678Z,1014.24
2017-03-23T07:47:06.220Z,1014.24
2017-03-23T07:48:18.416Z,1014.3
2017-03-23T07:49:30.616Z,1014.32
2017-03-23T07:50:43.158Z,1014.3
2017-03-23T07:51:55.381Z,1014.29
2017-03-23T07:53:07.618Z,1014.32
2017-03-23T07:54:19.875Z,1014.31
2017-03-23T07:55:32.371Z,1014.3
2017-03-23T07:56:44.896Z,1014.32
2017-03-23T07:57:57.436Z,1014.31
2017-03-23T07:59:09.954Z,1014.28
2017-03-23T08:00:21.857Z,1014.26
2017-03-23T08:01:34.093Z,1014.31
2017-03-23T08:02:46.017Z,1014.28
2017-03-23T08:03:58.255Z,1014.28
2017-03-23T08:05:10.790Z,1014.31
2017-03-23T08:06:23.005Z,1014.29
2017-03-23T08:07:34.922Z,1014.34
2017-03-23T08:08:47.147Z,1014.32
2017-03-23T08:09:59.638Z,1014.35
2017-03-23T08:11:11.868Z,1014.33
2017-03-23T08:12:24.110Z,1014.35
2017-03-23T08:13:36.324Z,1014.3
2017-03-23T08:14:48.555Z,1014.34
2017-03-23T08:16:01.079Z,1014.35
2017-03-23T08:17:13.598Z,1014.37
2017-03-23T08:18:25.495Z,1014.38
2017-03-23T08:19:37.990Z,1014.42
2017-03-23T08:20:50.225Z,1014.41
2017-03-23T08:22:02.737Z,1014.45
2017-03-23T08:23:14.952Z,1014.44
2017-03-23T08:24:26.848Z,1014.45
2017-03-23T08:25:39.134Z,1014.45
2017-03-23T08:26:51.364Z,1014.4
2017-03-23T08:28:03.591Z,1014.44
2017-03-23T08:29:15.831Z,1014.44
2017-03-23T08:30:28.344Z,1014.45
2017-03-23T08:31:40.587Z,1014.41
2017-03-23T08:32:52.829Z,1014.4
2017-03-23T08:34:05.365Z,1014.39
2017-03-23T08:35:17.586Z,1014.4
2017-03-23T08:36:29.828Z,1014.42
2017-03-23T08:37:42.374Z,1014.38
2017-03-23T08:38:54.902Z,1014.36
2017-03-23T08:40:07.417Z,1014.39
2017-03-23T08:41:19.958Z,1014.36
2017-03-23T08:42:31.586Z,1014.41
2017-03-23T08:43:44.110Z,1014.39
2017-03-23T08:44:56.358Z,1014.43
2017-03-23T08:46:08.600Z,1014.46
2017-03-23T08:47:21.117Z,1014.41
2017-03-23T08:48:32.761Z,1014.43
2017-03-23T08:49:44.987Z,1014.43
2017-03-23T08:50:57.554Z,1014.39
2017-03-23T08:52:10.106Z,1014.38
2017-03-23T08:53:22.621Z,1014.38
2017-03-23T08:54:35.151Z,1014.38
2017-03-23T08:55:47.667Z,1014.31
2017-03-23T08:57:00.180Z,1014.37
2017-03-23T08:58:12.713Z,1014.36
2017-03-23T08:59:24.659Z,1014.37
2017-03-23T09:00:37.193Z,1014.41
2017-03-23T09:01:49.746Z,1014.42
2017-03-23T09:03:02.294Z,1014.41
2017-03-23T09:04:14.830Z,1014.4
2017-03-23T09:05:27.358Z,1014.36
2017-03-23T09:06:39.905Z,1014.44
2017-03-23T09:07:52.447Z,1014.36
2017-03-23T09:09:04.693Z,1014.38
2017-03-23T09:10:17.221Z,1014.38
2017-03-23T09:11:29.788Z,1014.35
2017-03-23T09:12:42.330Z,1014.36
2017-03-23T09:13:54.527Z,1014.37
2017-03-23T09:15:06.745Z,1014.37
2017-03-23T09:16:18.997Z,1014.39
2017-03-23T09:17:30.918Z,1014.41
2017-03-23T09:18:43.438Z,1014.45
2017-03-23T09:19:55.953Z,1014.46
2017-03-23T09:21:08.173Z,1014.46
2017-03-23T09:22:20.402Z,1014.49
2017-03-23T09:23:32.639Z,1014.46
2017-03-23T09:24:45.164Z,1014.48
2017-03-23T09:25:57.715Z,1014.43
2017-03-23T09:27:09.661Z,1014.48
2017-03-23T09:28:21.896Z,1014.47
2017-03-23T09:29:34.419Z,1014.47
2017-03-23T09:30:46.965Z,1014.47
2017-03-23T09:31:59.497Z,1014.53
2017-03-23T09:33:12.036Z,1014.53
2017-03-23T09:34:24.252Z,1014.51
2017-03-23T09:35:36.503Z,1014.48
2017-03-23T09:36:49.067Z,1014.49
2017-03-23T09:38:01.570Z,1014.47
2017-03-23T09:39:13.496Z,1014.46
2017-03-23T09:40:26.090Z,1014.48
2017-03-23T09:41:38.332Z,1014.43
2017-03-23T09:42:50.878Z,1014.42
2017-03-23T09:44:03.401Z,1014.43
2017-03-23T09:45:15.348Z,1014.45
2017-03-23T09:46:27.569Z,1014.45
2017-03-23T09:47:40.095Z,1014.46
2017-03-23T09:48:52.626Z,1014.5
2017-03-23T09:50:05.183Z,1014.51
2017-03-23T09:51:17.431Z,1014.49
2017-03-23T09:52:29.364Z,1014.5
2017-03-23T09:53:41.894Z,1014.46
2017-03-23T09:54:54.141Z,1014.46
2017-03-23T09:56:06.085Z,1014.5
2017-03-23T09:57:18.313Z,1014.43
2017-03-23T09:58:30.851Z,1014.44
2017-03-23T09:59:43.379Z,1014.38
2017-03-23T10:00:55.921Z,1014.33
2017-03-23T10:02:08.164Z,1014.37
2017-03-23T10:03:20.712Z,1014.36
2017-03-23T10:04:33.260Z,1014.37
2017-03-23T10:05:45.776Z,1014.33
2017-03-23T10:06:58.322Z,1014.31
2017-03-23T10:08:10.548Z,1014.33
2017-03-23T10:09:23.088Z,1014.37
2017-03-23T10:10:35.613Z,1014.42
2017-03-23T10:11:47.855Z,1014.42
2017-03-23T10:13:00.073Z,1014.42
2017-03-23T10:14:12.323Z,1014.41
2017-03-23T10:15:24.868Z,1014.43
2017-03-23T10:16:37.089Z,1014.43
2017-03-23T10:17:49.335Z,1014.39
2017-03-23T10:19:01.856Z,1014.36
2017-03-23T10:20:14.377Z,1014.37
2017-03-23T10:21:26.616Z,1014.36
2017-03-23T10:22:38.542Z,1014.36
2017-03-23T10:23:51.060Z,1014.32
2017-03-23T10:25:03.577Z,1014.34
2017-03-23T10:26:15.826Z,1014.31
2017-03-23T10:27:27.753Z,1014.34
2017-03-23T10:28:39.977Z,1014.34
2017-03-23T10:29:52.499Z,1014.36
2017-03-23T10:31:04.723Z,1014.35
2017-03-23T10:32:17.264Z,1014.35
2017-03-23T10:33:29.511Z,1014.35
2017-03-23T10:34:42.033Z,1014.31
2017-03-23T10:35:54.274Z,1014.35
2017-03-23T10:37:06.803Z,1014.37
2017-03-23T10:38:19.316Z,1014.29
2017-03-23T10:39:31.240Z,1014.35
2017-03-23T10:40:43.486Z,1014.39
2017-03-23T10:41:56.024Z,1014.35
2017-03-23T10:43:07.627Z,1014.35
2017-03-23T10:44:19.873Z,1014.4
2017-03-23T10:45:32.416Z,1014.38
2017-03-23T10:46:44.937Z,1014.34
2017-03-23T10:47:57.461Z,1014.32
2017-03-23T10:49:09.682Z,1014.33
2017-03-23T10:50:21.925Z,1014.34
2017-03-23T10:51:34.163Z,1014.35
2017-03-23T10:52:46.394Z,1014.33
2017-03-23T10:53:58.620Z,1014.34
2017-03-23T10:55:10.561Z,1014.39
2017-03-23T10:56:22.807Z,1014.37
2017-03-23T10:57:35.053Z,1014.35
2017-03-23T10:58:46.996Z,1014.37
2017-03-23T10:59:59.520Z,1014.31
2017-03-23T11:01:12.084Z,1014.34
2017-03-23T11:02:24.609Z,1014.34
2017-03-23T11:03:36.859Z,1014.39
2017-03-23T11:04:49.105Z,1014.35
2017-03-23T11:06:01.349Z,1014.39
2017-03-23T11:07:13.914Z,1014.35
2017-03-23T11:08:26.166Z,1014.35
2017-03-23T11:09:38.714Z,1014.35
2017-03-23T11:10:50.960Z,1014.32
2017-03-23T11:12:03.501Z,1014.35
2017-03-23T11:13:15.151Z,1014.33
2017-03-23T11:14:27.693Z,1014.37
2017-03-23T11:15:39.620Z,1014.31
2017-03-23T11:16:51.510Z,1014.34
2017-03-23T11:18:04.048Z,1014.28
2017-03-23T11:19:15.981Z,1014.3
2017-03-23T11:20:28.223Z,1014.34
2017-03-23T11:21:40.122Z,1014.33
2017-03-23T11:22:52.659Z,1014.31
2017-03-23T11:24:05.181Z,1014.35
2017-03-23T11:25:17.437Z,1014.35
2017-03-23T11:26:29.980Z,1014.34
2017-03-23T11:27:42.473Z,1014.36
2017-03-23T11:28:55.011Z,1014.35
2017-03-23T11:30:07.544Z,1014.39
2017-03-23T11:31:19.528Z,1014.37
2017-03-23T11:32:32.060Z,1014.39
2017-03-23T11:33:44.581Z,1014.3
2017-03-23T11:34:56.502Z,1014.32
2017-03-23T11:36:08.448Z,1014.38
2017-03-23T11:37:20.692Z,1014.36
2017-03-23T11:38:33.257Z,1014.32
2017-03-23T11:39:45.491Z,1014.29
2017-03-23T11:40:58.046Z,1014.31
2017-03-23T11:42:10.555Z,1014.28
2017-03-23T11:43:23.095Z,1014.32
2017-03-23T11:44:35.019Z,1014.32
2017-03-23T11:45:47.587Z,1014.32
2017-03-23T11:46:59.808Z,1014.25
2017-03-23T11:48:12.333Z,1014.35
2017-03-23T11:49:24.546Z,1014.34
2017-03-23T11:50:37.095Z,1014.3
2017-03-23T11:51:49.337Z,1014.3
2017-03-23T11:53:01.565Z,1014.33
2017-03-23T11:54:13.511Z,1014.3
2017-03-23T11:55:25.758Z,1014.28
2017-03-23T11:56:38.304Z,1014.25
2017-03-23T11:57:50.849Z,1014.3
2017-03-23T11:59:03.396Z,1014.29
2017-03-23T12:00:15.939Z,1014.27
2017-03-23T12:01:27.884Z,1014.26
2017-03-23T12:02:40.375Z,1014.29
2017-03-23T12:03:52.630Z,1014.3
2017-03-23T12:05:05.172Z,1014.3
2017-03-23T12:06:17.721Z,1014.3
2017-03-23T12:07:30.267Z,1014.27
2017-03-23T12:08:42.187Z,1014.26
2017-03-23T12:09:54.715Z,1014.29
2017-03-23T12:11:07.246Z,1014.32
2017-03-23T12:12:19.477Z,1014.31
2017-03-23T12:13:31.714Z,1014.3
2017-03-23T12:14:44.274Z,1014.3
2017-03-23T12:15:56.813Z,1014.31
2017-03-23T12:17:08.732Z,1014.3
2017-03-23T12:18:20.952Z,1014.27
2017-03-23T12:19:33.479Z,1014.24
2017-03-23T12:20:45.998Z,1014.24
2017-03-23T12:21:57.639Z,1014.25
2017-03-23T12:23:09.557Z,1014.24
2017-03-23T12:24:21.781Z,1014.28
2017-03-23T12:25:34.295Z,1014.25
2017-03-23T12:26:46.799Z,1014.21
2017-03-23T12:27:59.007Z,1014.26
2017-03-23T12:29:10.960Z,1014.24
2017-03-23T12:30:22.614Z,1014.24
2017-03-23T12:31:34.557Z,1014.18
2017-03-23T12:32:46.781Z,1014.18
2017-03-23T12:33:59.324Z,1014.23
2017-03-23T12:35:10.648Z,1014.27
2017-03-23T12:36:22.890Z,1014.25
2017-03-23T12:37:35.132Z,1014.23
2017-03-23T12:38:47.657Z,1014.21
2017-03-23T12:39:59.882Z,1014.15
2017-03-23T12:41:12.429Z,1014.16
2017-03-23T12:42:24.976Z,1014.15
2017-03-23T12:43:37.197Z,1014.15
2017-03-23T12:44:49.737Z,1014.16
2017-03-23T12:46:02.287Z,1014.18
2017-03-23T12:47:14.850Z,1014.18
2017-03-23T12:48:27.095Z,1014.14
2017-03-23T12:49:39.621Z,1014.13
2017-03-23T12:50:52.142Z,1014.14
2017-03-23T12:52:04.367Z,1014.1
2017-03-23T12:53:16.634Z,1014.03
2017-03-23T12:54:28.259Z,1014.05
2017-03-23T12:55:40.796Z,1014
2017-03-23T12:56:53.021Z,1013.99
2017-03-23T12:58:05.266Z,1014.01
2017-03-23T12:59:17.509Z,1013.96
2017-03-23T13:00:29.737Z,1014
2017-03-23T13:01:42.309Z,1013.92
2017-03-23T13:02:54.253Z,1013.94
2017-03-23T13:04:06.826Z,1013.81
2017-03-23T13:05:19.085Z,1013.86
2017-03-23T13:06:31.613Z,1013.88
2017-03-23T13:07:43.509Z,1013.83
2017-03-23T13:08:56.033Z,1013.9
2017-03-23T13:10:08.251Z,1013.86
2017-03-23T13:11:20.774Z,1013.93
2017-03-23T13:12:33.335Z,1013.9
2017-03-23T13:13:45.841Z,1013.91
2017-03-23T13:14:58.064Z,1013.89
2017-03-23T13:16:10.014Z,1013.86
2017-03-23T13:17:21.955Z,1013.95
2017-03-23T13:18:34.176Z,1013.87
2017-03-23T13:19:46.415Z,1013.93
2017-03-23T13:20:58.965Z,1013.98
2017-03-23T13:22:11.489Z,1013.99
2017-03-23T13:23:23.731Z,1013.95
2017-03-23T13:24:35.952Z,1013.98
2017-03-23T13:25:48.502Z,1013.9
2017-03-23T13:27:01.046Z,1013.94
2017-03-23T13:28:13.290Z,1013.94
2017-03-23T13:29:24.929Z,1014.01
2017-03-23T13:30:37.150Z,1013.94
2017-03-23T13:31:49.699Z,1013.98
2017-03-23T13:33:02.240Z,1013.96
2017-03-23T13:34:14.477Z,1013.95
2017-03-23T13:35:26.999Z,1013.98
2017-03-23T13:36:39.539Z,1013.99
2017-03-23T13:37:51.485Z,1013.98
2017-03-23T13:39:03.403Z,1013.97
2017-03-23T13:40:15.949Z,1013.99
2017-03-23T13:41:28.174Z,1013.95
2017-03-23T13:42:40.696Z,1013.93
2017-03-23T13:43:53.217Z,1014.01
2017-03-23T13:45:04.862Z,1013.93
2017-03-23T13:46:17.080Z,1013.97
2017-03-23T13:47:29.618Z,1014
2017-03-23T13:48:42.174Z,1014.01
2017-03-23T13:49:54.421Z,1014.03
2017-03-23T13:51:06.945Z,1013.97
2017-03-23T13:52:19.462Z,1013.96
2017-03-23T13:53:32.034Z,1013.98
2017-03-23T13:54:44.568Z,1013.98
2017-03-23T13:55:56.476Z,1014
2017-03-23T13:57:09.021Z,1013.96
2017-03-23T13:58:21.555Z,1013.97
2017-03-23T13:59:33.763Z,1013.99
2017-03-23T14:00:45.979Z,1014.02
2017-03-23T14:01:58.203Z,1014.06
2017-03-23T14:03:10.449Z,1013.99
2017-03-23T14:04:22.946Z,1014.03
2017-03-23T14:05:35.488Z,1013.95
2017-03-23T14:06:47.726Z,1014.02
2017-03-23T14:07:59.684Z,1014.03
2017-03-23T14:09:12.193Z,1013.98
2017-03-23T14:10:24.397Z,1014.1
2017-03-23T14:11:36.939Z,1014.06
2017-03-23T14:12:49.168Z,1014.04
2017-03-23T14:14:01.688Z,1014.05
2017-03-23T14:15:13.901Z,1014.03
2017-03-23T14:16:26.151Z,1014.07
2017-03-23T14:17:38.651Z,1014.09
2017-03-23T14:18:50.874Z,1014.08
2017-03-23T14:20:03.092Z,1014.13
2017-03-23T14:21:15.013Z,1014.12
2017-03-23T14:22:26.931Z,1014.13
2017-03-23T14:23:39.157Z,1014.1
2017-03-23T14:24:51.404Z,1014.17
2017-03-23T14:26:03.944Z,1014.12
2017-03-23T14:27:16.493Z,1014.13
2017-03-23T14:28:28.739Z,1014.16
2017-03-23T14:29:41.335Z,1014.23
2017-03-23T14:30:53.878Z,1014.24
2017-03-23T14:32:06.132Z,1014.28
2017-03-23T14:33:18.377Z,1014.3
2017-03-23T14:34:30.865Z,1014.24
2017-03-23T14:35:43.129Z,1014.27
2017-03-23T14:36:55.710Z,1014.25